Fiskdale, Massachusetts
Current Conditions -  °F | °C
As of 12:54 AM on Friday 19 Dec 2014 (Local Time) from KORH Reporting Station
Overcast Overcast  
Wind Chill: 24°   Ceiling: 1600
Heat Index: 31°   Visibility: 10mi
Dew Point: 26°   Wind: 7mph
Humidity: 82%   Direction: 280°W
Pressure: 29.84"   Gusts: NA
Location:  42.12°N, 72.11°W
Report Text: KORH 190554Z AUTO 28006KT 10SM OVC016 M01/M03 A2984 RMK AO2 SLP117 T10061033 10006 21006 50003
Loading
Personal Weather Stations






























Interactive Weather Map New forecast layout! Learn more

10-Day Weather Forecast

Advertisements
Track Severe Weather on mobile